createdAt,value
2022-12-11T00:00:39.551Z,58.28
2022-12-11T00:03:10.203Z,52.45
2022-12-11T00:05:41.655Z,58.40
2022-12-11T00:08:08.427Z,49.72
2022-12-11T00:10:37.959Z,52.78
2022-12-11T00:13:05.436Z,51.88
2022-12-11T00:15:32.541Z,52.13
2022-12-11T00:17:59.231Z,54.78
2022-12-11T00:20:27.178Z,51.25
2022-12-11T00:22:54.051Z,49.35
2022-12-11T00:25:20.744Z,52.80
2022-12-11T00:27:47.570Z,60.90
2022-12-11T00:30:14.538Z,53.63
2022-12-11T00:32:41.890Z,58.95
2022-12-11T00:35:09.294Z,56.40
2022-12-11T00:37:36.295Z,59.45
2022-12-11T00:40:06.473Z,59.20
2022-12-11T00:42:33.431Z,60.15
2022-12-11T00:45:00.082Z,68.63
2022-12-11T00:47:26.851Z,55.70
2022-12-11T00:49:53.501Z,53.83
2022-12-11T00:52:20.237Z,61.13
2022-12-11T00:54:46.983Z,54.63
2022-12-11T00:57:14.857Z,53.85
2022-12-11T00:59:44.259Z,53.45
2022-12-11T01:02:11.026Z,50.25
2022-12-11T01:04:37.759Z,49.38
2022-12-11T01:07:04.574Z,46.00
2022-12-11T01:09:50.251Z,43.22
2022-12-11T01:12:17.748Z,42.50
2022-12-11T01:14:44.477Z,44.95
2022-12-11T01:17:11.444Z,47.88
2022-12-11T01:19:38.471Z,43.25
2022-12-11T01:22:05.433Z,44.20
2022-12-11T01:24:33.734Z,45.13
2022-12-11T01:27:00.622Z,36.85
2022-12-11T01:29:27.515Z,40.58
2022-12-11T01:31:54.305Z,41.83
2022-12-11T01:34:21.079Z,38.50
2022-12-11T01:36:47.969Z,45.60
2022-12-11T01:39:14.676Z,45.58
2022-12-11T01:41:42.797Z,45.15
2022-12-11T01:44:15.663Z,43.60
2022-12-11T01:46:43.011Z,43.25
2022-12-11T01:49:11.909Z,44.50
2022-12-11T01:51:47.631Z,41.67
2022-12-11T01:54:15.256Z,41.30
2022-12-11T01:56:43.870Z,42.88
2022-12-11T01:59:11.175Z,45.75
2022-12-11T02:01:53.483Z,36.85
2022-12-11T02:04:20.235Z,41.75
2022-12-11T02:06:56.447Z,43.70
2022-12-11T02:09:31.642Z,41.30
2022-12-11T02:12:17.113Z,40.10
2022-12-11T02:14:46.925Z,38.83
2022-12-11T02:17:16.818Z,43.65
2022-12-11T02:19:43.818Z,42.03
2022-12-11T02:22:12.370Z,38.08
2022-12-11T02:24:47.453Z,35.13
2022-12-11T02:27:27.203Z,35.33
2022-12-11T02:29:58.574Z,36.78
2022-12-11T02:32:39.773Z,34.28
2022-12-11T02:35:18.925Z,32.17
2022-12-11T02:37:46.592Z,33.28
2022-12-11T02:40:15.077Z,35.78
2022-12-11T02:42:42.966Z,34.10
2022-12-11T02:45:11.125Z,32.70
2022-12-11T02:47:38.986Z,32.72
2022-12-11T02:50:09.901Z,33.28
2022-12-11T02:52:39.703Z,29.45
2022-12-11T02:55:07.704Z,28.85
2022-12-11T02:57:44.107Z,26.23
2022-12-11T03:00:11.392Z,29.27
2022-12-11T03:02:39.033Z,23.30
2022-12-11T03:05:06.184Z,29.60
2022-12-11T03:07:34.434Z,26.55
2022-12-11T03:10:01.163Z,30.73
2022-12-11T03:12:29.441Z,33.33
2022-12-11T03:14:57.548Z,33.38
2022-12-11T03:17:27.832Z,29.15
2022-12-11T03:20:00.714Z,33.40
2022-12-11T03:22:48.817Z,29.03
2022-12-11T03:25:22.116Z,31.63
2022-12-11T03:27:53.464Z,30.02
2022-12-11T03:30:21.136Z,26.35
2022-12-11T03:32:56.565Z,31.25
2022-12-11T03:35:44.253Z,30.70
2022-12-11T03:38:36.253Z,25.75
2022-12-11T03:41:05.548Z,25.77
2022-12-11T03:43:32.959Z,22.25
2022-12-11T03:46:00.752Z,23.77
2022-12-11T03:48:29.944Z,21.90
2022-12-11T03:50:57.229Z,21.35
2022-12-11T03:53:25.682Z,20.23
2022-12-11T03:55:52.952Z,19.52
2022-12-11T03:58:20.921Z,17.48
2022-12-11T04:00:47.645Z,17.38
2022-12-11T04:03:15.045Z,15.75
2022-12-11T04:05:49.469Z,18.75
2022-12-11T04:08:18.182Z,16.77
2022-12-11T04:10:46.476Z,16.23
2022-12-11T04:13:13.439Z,20.75
2022-12-11T04:15:40.490Z,23.15
2022-12-11T04:18:26.143Z,19.48
2022-12-11T04:21:19.731Z,17.95
2022-12-11T04:24:04.831Z,21.88
2022-12-11T04:26:31.555Z,15.68
2022-12-11T04:28:58.783Z,18.65
2022-12-11T04:31:25.554Z,17.02
2022-12-11T04:33:53.417Z,19.25
2022-12-11T04:36:20.159Z,15.73
2022-12-11T04:38:47.096Z,15.40
2022-12-11T04:41:15.302Z,17.48
2022-12-11T04:43:45.164Z,16.17
2022-12-11T04:46:15.264Z,15.40
2022-12-11T04:48:42.146Z,15.38
2022-12-11T04:51:09.406Z,16.27
2022-12-11T04:53:36.738Z,16.98
2022-12-11T04:56:07.256Z,17.45
2022-12-11T04:58:35.948Z,15.80
2022-12-11T05:01:09.941Z,16.83
2022-12-11T05:03:37.560Z,14.85
2022-12-11T05:06:05.617Z,18.63
2022-12-11T05:08:34.342Z,19.00
2022-12-11T05:11:03.125Z,19.13
2022-12-11T05:13:30.079Z,18.27
2022-12-11T05:15:57.347Z,20.52
2022-12-11T05:18:24.850Z,24.60
2022-12-11T05:20:55.352Z,23.27
2022-12-11T05:23:22.041Z,33.35
2022-12-11T05:25:52.352Z,30.75
2022-12-11T05:28:19.740Z,30.45
2022-12-11T05:30:46.895Z,33.85
2022-12-11T05:33:14.095Z,40.47
2022-12-11T05:35:46.774Z,39.63
2022-12-11T05:38:13.481Z,35.75
2022-12-11T05:40:40.593Z,32.63
2022-12-11T05:43:07.395Z,43.30
2022-12-11T05:45:34.052Z,30.15
2022-12-11T05:48:00.904Z,35.42
2022-12-11T05:50:27.664Z,34.67
2022-12-11T05:52:54.324Z,33.72
2022-12-11T05:55:21.048Z,33.97
2022-12-11T05:57:48.917Z,33.05
2022-12-11T06:00:15.742Z,31.17
2022-12-11T06:02:42.592Z,29.67
2022-12-11T06:05:09.929Z,33.10
2022-12-11T06:07:36.763Z,29.67
2022-12-11T06:10:03.700Z,29.77
2022-12-11T06:12:33.246Z,31.95
2022-12-11T06:14:59.983Z,32.05
2022-12-11T06:17:26.716Z,33.65
2022-12-11T06:19:53.504Z,38.15
2022-12-11T06:22:20.263Z,34.35
2022-12-11T06:24:48.091Z,32.20
2022-12-11T06:27:14.890Z,34.13
2022-12-11T06:29:41.559Z,34.80
2022-12-11T06:32:08.308Z,35.25
2022-12-11T06:34:34.982Z,31.15
2022-12-11T06:37:01.778Z,46.28
2022-12-11T06:39:28.528Z,30.27
2022-12-11T06:41:55.258Z,30.13
2022-12-11T06:44:22.510Z,27.70
2022-12-11T06:46:49.173Z,27.02
2022-12-11T06:49:15.893Z,28.08
2022-12-11T06:51:42.612Z,30.13
2022-12-11T06:54:09.266Z,22.40
2022-12-11T06:56:38.272Z,23.42
2022-12-11T06:59:07.424Z,26.05
2022-12-11T07:01:34.470Z,23.55
2022-12-11T07:04:01.192Z,21.85
2022-12-11T07:06:28.496Z,21.20
2022-12-11T07:08:59.045Z,18.35
2022-12-11T07:11:35.694Z,20.25
2022-12-11T07:14:04.497Z,17.85
2022-12-11T07:16:38.812Z,28.17
2022-12-11T07:19:14.217Z,15.68
2022-12-11T07:21:43.714Z,15.80
2022-12-11T07:24:17.256Z,17.23
2022-12-11T07:26:46.954Z,15.82
2022-12-11T07:29:16.644Z,16.15
2022-12-11T07:31:49.640Z,17.27
2022-12-11T07:34:22.165Z,15.80
2022-12-11T07:36:48.854Z,14.75
2022-12-11T07:39:22.831Z,13.25
2022-12-11T07:41:53.972Z,18.85
2022-12-11T07:44:24.107Z,17.63
2022-12-11T07:46:56.805Z,14.70
2022-12-11T07:49:25.105Z,14.13
2022-12-11T07:51:52.734Z,13.60
2022-12-11T07:54:28.360Z,15.52
2022-12-11T07:56:57.719Z,16.35
2022-12-11T07:59:35.135Z,15.02
2022-12-11T08:02:03.360Z,14.15
2022-12-11T08:04:33.715Z,13.95
2022-12-11T08:07:03.160Z,17.95
2022-12-11T08:09:35.012Z,14.13
2022-12-11T08:12:04.429Z,14.90
2022-12-11T08:14:36.218Z,21.27
2022-12-11T08:17:03.375Z,16.65
2022-12-11T08:19:30.157Z,18.67
2022-12-11T08:22:03.663Z,15.95
2022-12-11T08:24:33.339Z,17.67
2022-12-11T08:27:08.731Z,15.05
2022-12-11T08:29:38.721Z,16.05
2022-12-11T08:32:12.563Z,12.95
2022-12-11T08:34:47.690Z,14.82
2022-12-11T08:37:20.089Z,13.52
2022-12-11T08:39:47.191Z,15.05
2022-12-11T08:42:15.277Z,12.80
2022-12-11T08:44:46.062Z,13.70
2022-12-11T08:47:18.128Z,16.38
2022-12-11T08:49:56.842Z,18.25
2022-12-11T08:52:27.301Z,13.50
2022-12-11T08:54:57.090Z,17.20
2022-12-11T08:57:31.195Z,18.05
2022-12-11T09:00:02.445Z,17.02
2022-12-11T09:02:34.201Z,15.95
2022-12-11T09:05:03.799Z,16.95
2022-12-11T09:07:40.175Z,14.85
2022-12-11T09:10:13.787Z,13.80
2022-12-11T09:12:46.365Z,18.45
2022-12-11T09:15:13.460Z,13.98
2022-12-11T09:17:41.480Z,16.13
2022-12-11T09:20:11.948Z,14.95
2022-12-11T09:22:46.340Z,13.05
2022-12-11T09:25:13.439Z,12.30
2022-12-11T09:27:43.260Z,15.18
2022-12-11T09:30:14.479Z,13.30
2022-12-11T09:32:43.963Z,12.82
2022-12-11T09:35:17.977Z,11.98
2022-12-11T09:37:47.641Z,12.18
2022-12-11T09:40:16.227Z,15.15
2022-12-11T09:43:01.388Z,19.55
2022-12-11T09:45:34.293Z,16.98
2022-12-11T09:53:08.518Z,12.88
2022-12-11T09:56:00.133Z,17.38
2022-12-11T09:58:33.030Z,13.38
2022-12-11T10:01:02.793Z,12.47
2022-12-11T10:03:50.022Z,12.73
2022-12-11T10:06:22.840Z,13.50
2022-12-11T10:09:01.237Z,13.10
2022-12-11T10:11:56.509Z,15.18
2022-12-11T10:14:26.801Z,12.95
2022-12-11T10:17:00.456Z,14.20
2022-12-11T10:19:30.661Z,20.80
2022-12-11T10:22:00.937Z,20.08
2022-12-11T10:25:09.437Z,22.88
2022-12-11T10:27:23.950Z,18.80
2022-12-11T10:30:03.182Z,20.50
2022-12-11T10:32:38.945Z,23.27
2022-12-11T10:35:13.811Z,18.20
2022-12-11T10:37:46.217Z,16.55
2022-12-11T10:40:21.773Z,19.85
2022-12-11T10:42:57.177Z,18.27
2022-12-11T10:45:28.494Z,17.40
2022-12-11T10:48:13.452Z,25.02
2022-12-11T10:50:45.716Z,11.88
2022-12-11T10:53:31.331Z,12.38
2022-12-11T10:56:03.298Z,16.23
2022-12-11T10:58:34.498Z,9.38
2022-12-11T11:01:18.940Z,10.68
2022-12-11T11:06:17.494Z,8.68
2022-12-11T11:08:49.122Z,14.95
2022-12-11T11:11:36.919Z,9.63
2022-12-11T11:14:06.831Z,11.38
2022-12-11T11:16:36.352Z,9.90
2022-12-11T11:19:03.955Z,8.45
2022-12-11T11:21:31.995Z,7.68
2022-12-11T11:23:58.959Z,7.80
2022-12-11T11:26:38.297Z,11.57
2022-12-11T11:29:23.201Z,7.15
2022-12-11T11:31:50.572Z,5.05
2022-12-11T11:34:20.172Z,4.80
2022-12-11T11:36:55.484Z,4.75
2022-12-11T11:39:28.450Z,9.48
2022-12-11T11:41:58.936Z,5.50
2022-12-11T11:44:39.577Z,5.82
2022-12-11T11:47:27.823Z,4.90
2022-12-11T11:49:57.803Z,3.30
2022-12-11T11:52:28.529Z,4.13
2022-12-11T11:54:58.458Z,3.20
2022-12-11T11:57:34.162Z,1.65
2022-12-11T12:00:15.643Z,2.08
2022-12-11T12:02:42.656Z,1.92
2022-12-11T12:05:13.767Z,1.60
2022-12-11T12:08:10.993Z,2.25
2022-12-11T12:10:46.726Z,4.53
2022-12-11T12:13:48.030Z,1.85
2022-12-11T12:16:43.815Z,1.50
2022-12-11T12:19:12.951Z,1.50
2022-12-11T12:21:42.275Z,2.47
2022-12-11T12:24:09.266Z,2.55
2022-12-11T12:26:37.686Z,4.50
2022-12-11T12:29:16.984Z,2.28
2022-12-11T12:31:53.033Z,2.55
2022-12-11T12:34:22.548Z,2.05
2022-12-11T12:36:49.379Z,2.25
2022-12-11T12:39:16.097Z,4.72
2022-12-11T12:41:48.503Z,2.50
2022-12-11T12:44:17.078Z,2.50
2022-12-11T12:46:53.498Z,2.28
2022-12-11T12:49:26.149Z,2.75
2022-12-11T12:51:53.388Z,3.70
2022-12-11T12:54:21.030Z,3.00
2022-12-11T12:56:48.899Z,3.95
2022-12-11T12:59:23.659Z,2.13
2022-12-11T13:01:56.253Z,1.70
2022-12-11T13:04:54.520Z,2.00
2022-12-11T13:07:19.278Z,5.35
2022-12-11T13:10:15.917Z,2.47
2022-12-11T13:12:44.400Z,1.40
2022-12-11T13:15:44.018Z,2.85
2022-12-11T13:18:29.919Z,2.65
2022-12-11T13:20:57.160Z,2.90
2022-12-11T13:23:28.887Z,3.67
2022-12-11T13:25:57.327Z,4.95
2022-12-11T13:28:44.456Z,6.35
2022-12-11T13:31:14.262Z,4.65
2022-12-11T13:33:47.238Z,4.53
2022-12-11T13:36:25.078Z,5.18
2022-12-11T13:38:54.972Z,8.30
2022-12-11T13:41:22.737Z,3.95
2022-12-11T13:43:50.097Z,3.05
2022-12-11T13:46:20.220Z,2.60
2022-12-11T13:48:57.169Z,1.88
2022-12-11T13:51:24.853Z,2.10
2022-12-11T13:54:06.091Z,3.15
2022-12-11T13:56:38.558Z,3.30
2022-12-11T13:59:05.429Z,2.33
2022-12-11T14:01:34.223Z,3.95
2022-12-11T14:04:01.031Z,1.20
2022-12-11T14:06:28.690Z,1.75
2022-12-11T14:08:57.533Z,2.10
2022-12-11T14:11:30.229Z,2.75
2022-12-11T14:13:58.457Z,1.75
2022-12-11T14:16:26.854Z,3.40
2022-12-11T14:18:56.541Z,1.92
2022-12-11T14:21:24.516Z,1.70
2022-12-11T14:24:03.300Z,5.53
2022-12-11T14:26:31.081Z,2.63
2022-12-11T14:28:58.358Z,5.57
2022-12-11T14:31:29.417Z,5.30
2022-12-11T14:34:01.194Z,1.52
2022-12-11T14:36:29.086Z,2.58
2022-12-11T14:38:57.580Z,5.05
2022-12-11T14:41:30.066Z,1.80
2022-12-11T14:43:59.071Z,1.80
2022-12-11T14:46:40.279Z,1.95
2022-12-11T14:49:12.978Z,1.80
2022-12-11T14:51:42.718Z,1.83
2022-12-11T14:54:20.198Z,2.38
2022-12-11T14:56:47.628Z,1.83
2022-12-11T14:59:19.275Z,2.85
2022-12-11T15:01:46.277Z,2.58
2022-12-11T15:04:16.157Z,3.00
2022-12-11T15:06:44.265Z,2.03
2022-12-11T15:09:42.532Z,1.70
2022-12-11T15:12:14.396Z,1.80
2022-12-11T15:14:48.832Z,2.80
2022-12-11T15:17:15.684Z,3.58
2022-12-11T15:19:47.032Z,4.57
2022-12-11T15:22:15.265Z,2.03
2022-12-11T15:24:43.239Z,2.13
2022-12-11T15:27:21.979Z,6.15
2022-12-11T15:29:48.667Z,6.65
2022-12-11T15:32:19.596Z,2.67
2022-12-11T15:34:54.851Z,3.20
2022-12-11T15:37:26.048Z,3.42
2022-12-11T15:39:53.426Z,8.20
2022-12-11T15:42:29.278Z,3.35
2022-12-11T15:44:56.875Z,3.28
2022-12-11T15:47:27.593Z,4.15
2022-12-11T15:49:57.099Z,3.88
2022-12-11T15:52:23.796Z,2.40
2022-12-11T15:54:50.611Z,3.17
2022-12-11T15:57:20.300Z,11.35
2022-12-11T15:59:48.907Z,5.30
2022-12-11T16:02:16.026Z,5.55
2022-12-11T16:04:42.782Z,3.45
2022-12-11T16:07:15.389Z,2.85
2022-12-11T16:09:42.275Z,2.65
2022-12-11T16:12:09.203Z,3.60
2022-12-11T16:14:38.213Z,5.40
2022-12-11T16:17:05.973Z,6.75
2022-12-11T16:19:33.457Z,8.55
2022-12-11T16:22:01.043Z,6.32
2022-12-11T16:24:28.031Z,6.05
2022-12-11T16:26:54.766Z,5.07
2022-12-11T16:29:22.361Z,3.85
2022-12-11T16:31:49.144Z,3.80
2022-12-11T16:34:16.402Z,8.07
2022-12-11T16:36:43.242Z,4.32
2022-12-11T16:39:12.725Z,6.32
2022-12-11T16:41:39.678Z,8.45
2022-12-11T16:44:06.711Z,8.05
2022-12-11T16:46:33.473Z,4.70
2022-12-11T16:49:00.833Z,5.07
2022-12-11T16:51:27.759Z,7.65
2022-12-11T16:53:54.446Z,11.75
2022-12-11T16:56:21.325Z,8.05
2022-12-11T16:58:48.377Z,19.70
2022-12-11T17:01:15.907Z,16.98
2022-12-11T17:03:43.450Z,14.30
2022-12-11T17:06:11.253Z,10.80
2022-12-11T17:08:38.036Z,10.27
2022-12-11T17:11:07.070Z,9.75
2022-12-11T17:13:36.126Z,11.48
2022-12-11T17:16:06.972Z,9.40
2022-12-11T17:18:34.787Z,17.13
2022-12-11T17:21:06.838Z,21.98
2022-12-11T17:23:34.745Z,15.63
2022-12-11T17:26:02.667Z,15.23
2022-12-11T17:28:30.563Z,22.15
2022-12-11T17:30:57.933Z,16.98
2022-12-11T17:33:24.835Z,19.40
2022-12-11T17:35:51.946Z,19.40
2022-12-11T17:38:18.783Z,18.77
2022-12-11T17:40:45.537Z,16.92
2022-12-11T17:43:12.549Z,9.68
2022-12-11T17:45:47.241Z,21.23
2022-12-11T17:48:14.821Z,14.32
2022-12-11T17:50:46.565Z,10.80
2022-12-11T17:53:14.429Z,15.20
2022-12-11T17:55:42.792Z,17.50
2022-12-11T17:58:20.474Z,17.95
2022-12-11T18:00:48.325Z,15.32
2022-12-11T18:03:15.213Z,18.52
2022-12-11T18:05:43.057Z,16.40
2022-12-11T18:08:12.972Z,14.00
2022-12-11T18:10:40.170Z,10.63
2022-12-11T18:13:07.197Z,10.00
2022-12-11T18:15:34.188Z,8.43
2022-12-11T18:18:01.625Z,11.95
2022-12-11T18:20:28.510Z,8.23
2022-12-11T18:22:55.665Z,11.25
2022-12-11T18:25:22.512Z,9.32
2022-12-11T18:27:50.013Z,9.68
2022-12-11T18:30:16.889Z,11.57
2022-12-11T18:32:44.671Z,13.55
2022-12-11T18:35:12.265Z,22.48
2022-12-11T18:37:39.402Z,28.40
2022-12-11T18:40:07.306Z,43.17
2022-12-11T18:42:34.231Z,35.67
2022-12-11T18:45:01.179Z,33.33
2022-12-11T18:47:28.486Z,27.30
2022-12-11T18:49:55.385Z,15.88
2022-12-11T18:52:22.077Z,14.65
2022-12-11T18:54:50.395Z,13.80
2022-12-11T18:57:17.053Z,15.23
2022-12-11T18:59:43.793Z,14.52
2022-12-11T19:08:12.647Z,10.75
2022-12-11T19:10:48.001Z,6.55
2022-12-11T19:13:14.982Z,11.75
2022-12-11T19:15:42.617Z,7.95
2022-12-11T19:18:09.800Z,6.75
2022-12-11T19:20:49.194Z,26.70
2022-12-11T19:23:18.189Z,30.75
2022-12-11T19:25:47.299Z,19.95
2022-12-11T19:28:14.607Z,15.82
2022-12-11T19:30:42.384Z,21.45
2022-12-11T19:33:09.819Z,18.35
2022-12-11T19:35:36.700Z,22.17
2022-12-11T19:38:03.470Z,18.30
2022-12-11T19:40:30.199Z,18.05
2022-12-11T19:42:56.906Z,19.95
2022-12-11T19:45:23.657Z,14.38
2022-12-11T19:47:50.305Z,14.75
2022-12-11T19:50:17.068Z,12.20
2022-12-11T19:52:46.380Z,18.20
2022-12-11T19:55:14.995Z,10.85
2022-12-11T19:57:41.806Z,10.90
2022-12-11T20:00:08.675Z,11.80
2022-12-11T20:02:38.876Z,14.43
2022-12-11T20:05:06.172Z,15.73
2022-12-11T20:07:32.966Z,19.67
2022-12-11T20:10:00.498Z,14.32
2022-12-11T20:12:28.496Z,13.75
2022-12-11T20:14:55.423Z,12.18
2022-12-11T20:17:22.181Z,13.60
2022-12-11T20:19:49.713Z,11.63
2022-12-11T20:22:16.469Z,12.05
2022-12-11T20:24:43.154Z,16.33
2022-12-11T20:27:10.099Z,9.95
2022-12-11T20:29:37.836Z,9.93
2022-12-11T20:32:05.070Z,15.13
2022-12-11T20:34:31.841Z,13.93
2022-12-11T20:37:00.203Z,36.35
2022-12-11T20:39:27.114Z,128.27
2022-12-11T20:41:56.762Z,224.10
2022-12-11T20:44:23.555Z,170.77
2022-12-11T20:46:50.925Z,116.68
2022-12-11T20:49:17.701Z,216.38
2022-12-11T20:51:44.983Z,187.13
2022-12-11T20:54:12.192Z,175.23
2022-12-11T20:56:39.204Z,53.60
2022-12-11T20:59:06.830Z,168.25
2022-12-11T21:01:35.192Z,279.20
2022-12-11T21:04:02.184Z,328.02
2022-12-11T21:06:31.337Z,150.90
2022-12-11T21:08:59.471Z,65.65
2022-12-11T21:11:26.967Z,93.40
2022-12-11T21:13:54.060Z,66.05
2022-12-11T21:16:21.526Z,98.53
2022-12-11T21:18:48.512Z,111.25
2022-12-11T21:21:15.751Z,162.63
2022-12-11T21:23:42.443Z,133.77
2022-12-11T21:26:09.292Z,174.48
2022-12-11T21:28:36.056Z,106.80
2022-12-11T21:31:06.863Z,72.00
2022-12-11T21:33:34.234Z,100.32
2022-12-11T21:36:01.428Z,141.13
2022-12-11T21:38:30.513Z,247.48
2022-12-11T21:40:57.891Z,117.45
2022-12-11T21:43:25.024Z,307.92
2022-12-11T21:46:07.492Z,101.00
2022-12-11T21:48:34.536Z,271.55
2022-12-11T21:51:05.670Z,341.42
2022-12-11T21:53:32.406Z,170.00
2022-12-11T21:55:59.417Z,165.80
2022-12-11T21:58:26.220Z,332.80
2022-12-11T22:00:55.451Z,111.13
2022-12-11T22:03:22.270Z,179.45
2022-12-11T22:05:49.510Z,155.40
2022-12-11T22:08:16.367Z,255.27
2022-12-11T22:10:43.198Z,105.15
2022-12-11T22:13:10.953Z,115.70
2022-12-11T22:15:37.945Z,107.03
2022-12-11T22:18:04.668Z,253.55
2022-12-11T22:20:31.484Z,124.07
2022-12-11T22:22:58.182Z,71.72
2022-12-11T22:25:25.040Z,61.80
2022-12-11T22:27:51.703Z,75.70
2022-12-11T22:30:18.450Z,71.90
2022-12-11T22:32:45.777Z,67.05
2022-12-11T22:35:16.391Z,72.40
2022-12-11T22:37:43.126Z,65.55
2022-12-11T22:40:16.788Z,67.38
2022-12-11T22:42:44.149Z,67.38
2022-12-11T22:45:13.220Z,64.28
2022-12-11T22:47:40.401Z,79.13
2022-12-11T22:50:07.488Z,93.47
2022-12-11T22:52:36.118Z,93.03
2022-12-11T22:55:03.565Z,103.40
2022-12-11T22:57:30.669Z,82.18
2022-12-11T22:59:57.568Z,81.93
2022-12-11T23:02:24.298Z,81.22
2022-12-11T23:04:51.148Z,89.97
2022-12-11T23:07:17.997Z,95.72
2022-12-11T23:09:44.717Z,99.18
2022-12-11T23:12:11.494Z,85.45
2022-12-11T23:14:38.223Z,77.38
2022-12-11T23:17:05.135Z,67.97
2022-12-11T23:19:31.891Z,69.95
2022-12-11T23:21:58.609Z,74.15
2022-12-11T23:24:25.333Z,77.85
2022-12-11T23:26:52.021Z,84.20
2022-12-11T23:29:18.729Z,96.78
2022-12-11T23:31:45.488Z,93.63
2022-12-11T23:34:12.232Z,92.22
2022-12-11T23:36:38.879Z,90.60
2022-12-11T23:39:05.587Z,83.75
2022-12-11T23:41:32.642Z,101.70
2022-12-11T23:43:59.914Z,98.35
2022-12-11T23:46:27.287Z,94.05
2022-12-11T23:48:54.157Z,85.05
2022-12-11T23:51:21.817Z,100.85
2022-12-11T23:53:48.945Z,87.57
2022-12-11T23:56:17.872Z,82.68
2022-12-11T23:58:45.280Z,71.50
